sensor_id;sensor_type;location;lat;lon;timestamp;temperature;humidity
30825;DHT22;17550;45.486;12.222;2023-04-24T00:00:54;14.80;99.90
30825;DHT22;17550;45.486;12.222;2023-04-24T00:03:25;14.80;99.90
30825;DHT22;17550;45.486;12.222;2023-04-24T00:05:51;14.70;99.90
30825;DHT22;17550;45.486;12.222;2023-04-24T00:08:18;14.70;99.90
30825;DHT22;17550;45.486;12.222;2023-04-24T00:10:44;14.70;99.90
30825;DHT22;17550;45.486;12.222;2023-04-24T00:13:10;14.70;99.90
30825;DHT22;17550;45.486;12.222;2023-04-24T00:15:35;14.80;99.90
30825;DHT22;17550;45.486;12.222;2023-04-24T00:18:01;14.70;99.90
30825;DHT22;17550;45.486;12.222;2023-04-24T00:20:28;14.70;99.90
30825;DHT22;17550;45.486;12.222;2023-04-24T00:22:55;14.70;99.90
30825;DHT22;17550;45.486;12.222;2023-04-24T00:25:21;14.70;99.90
30825;DHT22;17550;45.486;12.222;2023-04-24T00:27:46;14.70;99.90
30825;DHT22;17550;45.486;12.222;2023-04-24T00:30:12;14.70;99.90
30825;DHT22;17550;45.486;12.222;2023-04-24T00:32:38;14.60;99.90
30825;DHT22;17550;45.486;12.222;2023-04-24T00:35:05;14.60;99.90
30825;DHT22;17550;45.486;12.222;2023-04-24T00:37:31;14.60;99.90
30825;DHT22;17550;45.486;12.222;2023-04-24T00:39:57;14.60;99.90
30825;DHT22;17550;45.486;12.222;2023-04-24T00:42:23;14.50;99.90
30825;DHT22;17550;45.486;12.222;2023-04-24T00:44:49;14.60;99.90
30825;DHT22;17550;45.486;12.222;2023-04-24T00:47:15;14.60;99.90
30825;DHT22;17550;45.486;12.222;2023-04-24T00:49:41;14.60;99.90
30825;DHT22;17550;45.486;12.222;2023-04-24T00:52:06;14.60;99.90
30825;DHT22;17550;45.486;12.222;2023-04-24T00:54:35;14.50;99.90
30825;DHT22;17550;45.486;12.222;2023-04-24T00:57:02;14.50;99.90
30825;DHT22;17550;45.486;12.222;2023-04-24T00:59:28;14.50;99.90
30825;DHT22;17550;45.486;12.222;2023-04-24T01:01:54;14.40;99.90
30825;DHT22;17550;45.486;12.222;2023-04-24T01:04:20;14.50;99.90
30825;DHT22;17550;45.486;12.222;2023-04-24T01:06:46;14.40;99.90
30825;DHT22;17550;45.486;12.222;2023-04-24T01:09:14;14.40;99.90
30825;DHT22;17550;45.486;12.222;2023-04-24T01:11:41;14.40;99.90
30825;DHT22;17550;45.486;12.222;2023-04-24T01:14:08;14.40;99.90
30825;DHT22;17550;45.486;12.222;2023-04-24T01:16:34;14.30;99.90
30825;DHT22;17550;45.486;12.222;2023-04-24T01:18:59;14.30;99.90
30825;DHT22;17550;45.486;12.222;2023-04-24T01:21:26;14.30;99.90
30825;DHT22;17550;45.486;12.222;2023-04-24T01:23:55;14.30;99.90
30825;DHT22;17550;45.486;12.222;2023-04-24T01:26:22;14.30;99.90
30825;DHT22;17550;45.486;12.222;2023-04-24T01:28:48;14.30;99.90
30825;DHT22;17550;45.486;12.222;2023-04-24T01:31:15;14.20;99.90
30825;DHT22;17550;45.486;12.222;2023-04-24T01:33:41;14.20;99.90
30825;DHT22;17550;45.486;12.222;2023-04-24T01:36:09;14.20;99.90
30825;DHT22;17550;45.486;12.222;2023-04-24T01:38:35;14.20;99.90
30825;DHT22;17550;45.486;12.222;2023-04-24T01:41:01;14.20;99.90
30825;DHT22;17550;45.486;12.222;2023-04-24T01:43:28;14.20;99.90
30825;DHT22;17550;45.486;12.222;2023-04-24T01:45:53;14.10;99.90
30825;DHT22;17550;45.486;12.222;2023-04-24T01:48:19;14.10;99.90
30825;DHT22;17550;45.486;12.222;2023-04-24T01:50:45;14.10;99.90
30825;DHT22;17550;45.486;12.222;2023-04-24T01:53:11;14.10;99.90
30825;DHT22;17550;45.486;12.222;2023-04-24T01:55:37;14.10;99.90
30825;DHT22;17550;45.486;12.222;2023-04-24T01:58:03;14.10;99.90
30825;DHT22;17550;45.486;12.222;2023-04-24T02:00:28;14.10;99.90
30825;DHT22;17550;45.486;12.222;2023-04-24T02:02:54;14.10;99.90
30825;DHT22;17550;45.486;12.222;2023-04-24T02:05:20;14.10;99.90
30825;DHT22;17550;45.486;12.222;2023-04-24T02:07:45;14.10;99.90
30825;DHT22;17550;45.486;12.222;2023-04-24T02:10:11;14.10;99.90
30825;DHT22;17550;45.486;12.222;2023-04-24T02:12:37;14.00;99.90
30825;DHT22;17550;45.486;12.222;2023-04-24T02:15:03;14.00;99.90
30825;DHT22;17550;45.486;12.222;2023-04-24T02:17:29;14.10;99.90
30825;DHT22;17550;45.486;12.222;2023-04-24T02:19:56;14.10;99.90
30825;DHT22;17550;45.486;12.222;2023-04-24T02:22:21;14.10;99.90
30825;DHT22;17550;45.486;12.222;2023-04-24T02:24:47;14.10;99.90
30825;DHT22;17550;45.486;12.222;2023-04-24T02:27:13;14.10;99.90
30825;DHT22;17550;45.486;12.222;2023-04-24T02:29:39;14.10;99.90
30825;DHT22;17550;45.486;12.222;2023-04-24T02:32:05;14.10;99.90
30825;DHT22;17550;45.486;12.222;2023-04-24T02:34:30;14.10;99.90
30825;DHT22;17550;45.486;12.222;2023-04-24T02:36:56;14.10;99.90
30825;DHT22;17550;45.486;12.222;2023-04-24T02:39:22;14.20;99.90
30825;DHT22;17550;45.486;12.222;2023-04-24T02:41:47;14.20;99.90
30825;DHT22;17550;45.486;12.222;2023-04-24T02:44:13;14.20;99.90
30825;DHT22;17550;45.486;12.222;2023-04-24T02:46:39;14.20;99.90
30825;DHT22;17550;45.486;12.222;2023-04-24T02:49:06;14.20;99.90
30825;DHT22;17550;45.486;12.222;2023-04-24T02:51:32;14.20;99.90
30825;DHT22;17550;45.486;12.222;2023-04-24T02:53:57;14.20;99.90
30825;DHT22;17550;45.486;12.222;2023-04-24T02:56:23;14.20;99.90
30825;DHT22;17550;45.486;12.222;2023-04-24T02:58:49;14.20;99.90
30825;DHT22;17550;45.486;12.222;2023-04-24T03:01:14;14.20;99.90
30825;DHT22;17550;45.486;12.222;2023-04-24T03:03:40;14.20;99.90
30825;DHT22;17550;45.486;12.222;2023-04-24T03:06:06;14.20;99.90
30825;DHT22;17550;45.486;12.222;2023-04-24T03:08:33;14.30;99.90
30825;DHT22;17550;45.486;12.222;2023-04-24T03:10:59;14.30;99.90
30825;DHT22;17550;45.486;12.222;2023-04-24T03:13:25;14.30;99.90
30825;DHT22;17550;45.486;12.222;2023-04-24T03:15:51;14.30;99.90
30825;DHT22;17550;45.486;12.222;2023-04-24T03:18:17;14.40;99.90
30825;DHT22;17550;45.486;12.222;2023-04-24T03:20:45;14.40;99.90
30825;DHT22;17550;45.486;12.222;2023-04-24T03:23:11;14.40;99.90
30825;DHT22;17550;45.486;12.222;2023-04-24T03:25:37;14.40;99.90
30825;DHT22;17550;45.486;12.222;2023-04-24T03:28:03;14.40;99.90
30825;DHT22;17550;45.486;12.222;2023-04-24T03:30:28;14.40;99.90
30825;DHT22;17550;45.486;12.222;2023-04-24T03:32:54;14.40;99.90
30825;DHT22;17550;45.486;12.222;2023-04-24T03:35:21;14.50;99.90
30825;DHT22;17550;45.486;12.222;2023-04-24T03:37:47;14.50;99.90
30825;DHT22;17550;45.486;12.222;2023-04-24T03:40:13;14.50;99.90
30825;DHT22;17550;45.486;12.222;2023-04-24T03:42:38;14.50;99.90
30825;DHT22;17550;45.486;12.222;2023-04-24T03:45:05;14.60;99.90
30825;DHT22;17550;45.486;12.222;2023-04-24T03:47:31;14.70;99.90
30825;DHT22;17550;45.486;12.222;2023-04-24T03:49:56;14.70;99.90
30825;DHT22;17550;45.486;12.222;2023-04-24T03:52:22;14.70;99.90
30825;DHT22;17550;45.486;12.222;2023-04-24T03:54:48;14.70;99.90
30825;DHT22;17550;45.486;12.222;2023-04-24T03:57:13;14.80;99.90
30825;DHT22;17550;45.486;12.222;2023-04-24T03:59:39;14.90;99.90
30825;DHT22;17550;45.486;12.222;2023-04-24T04:02:05;14.90;99.90
30825;DHT22;17550;45.486;12.222;2023-04-24T04:04:30;14.90;99.90
30825;DHT22;17550;45.486;12.222;2023-04-24T04:06:56;14.90;99.90
30825;DHT22;17550;45.486;12.222;2023-04-24T04:09:22;14.90;99.90
30825;DHT22;17550;45.486;12.222;2023-04-24T04:11:47;14.90;99.90
30825;DHT22;17550;45.486;12.222;2023-04-24T04:14:13;14.90;99.90
30825;DHT22;17550;45.486;12.222;2023-04-24T04:16:39;14.90;99.90
30825;DHT22;17550;45.486;12.222;2023-04-24T04:19:04;14.90;99.90
30825;DHT22;17550;45.486;12.222;2023-04-24T04:21:30;14.90;99.90
30825;DHT22;17550;45.486;12.222;2023-04-24T04:23:57;14.90;99.90
30825;DHT22;17550;45.486;12.222;2023-04-24T04:26:23;14.90;99.90
30825;DHT22;17550;45.486;12.222;2023-04-24T04:28:51;14.90;99.90
30825;DHT22;17550;45.486;12.222;2023-04-24T04:31:18;15.00;99.90
30825;DHT22;17550;45.486;12.222;2023-04-24T04:33:45;14.90;99.90
30825;DHT22;17550;45.486;12.222;2023-04-24T04:36:10;14.80;99.90
30825;DHT22;17550;45.486;12.222;2023-04-24T04:38:37;14.80;99.90
30825;DHT22;17550;45.486;12.222;2023-04-24T04:41:03;14.70;99.90
30825;DHT22;17550;45.486;12.222;2023-04-24T04:43:29;14.70;99.90
30825;DHT22;17550;45.486;12.222;2023-04-24T04:45:57;14.70;99.90
30825;DHT22;17550;45.486;12.222;2023-04-24T04:48:23;14.60;99.90
30825;DHT22;17550;45.486;12.222;2023-04-24T04:50:48;14.60;99.90
30825;DHT22;17550;45.486;12.222;2023-04-24T04:53:14;14.60;99.90
30825;DHT22;17550;45.486;12.222;2023-04-24T04:55:40;14.50;99.90
30825;DHT22;17550;45.486;12.222;2023-04-24T04:58:06;14.40;99.90
30825;DHT22;17550;45.486;12.222;2023-04-24T05:00:32;14.30;99.90
30825;DHT22;17550;45.486;12.222;2023-04-24T05:03:01;14.20;99.90
30825;DHT22;17550;45.486;12.222;2023-04-24T05:05:27;14.20;99.90
30825;DHT22;17550;45.486;12.222;2023-04-24T05:07:53;14.20;99.90
30825;DHT22;17550;45.486;12.222;2023-04-24T05:10:18;14.20;99.90
30825;DHT22;17550;45.486;12.222;2023-04-24T05:12:44;14.20;99.90
30825;DHT22;17550;45.486;12.222;2023-04-24T05:15:10;14.20;99.90
30825;DHT22;17550;45.486;12.222;2023-04-24T05:17:36;14.30;99.90
30825;DHT22;17550;45.486;12.222;2023-04-24T05:20:03;14.30;99.90
30825;DHT22;17550;45.486;12.222;2023-04-24T05:22:31;14.40;99.90
30825;DHT22;17550;45.486;12.222;2023-04-24T05:24:56;14.50;99.90
30825;DHT22;17550;45.486;12.222;2023-04-24T05:27:22;14.50;99.90
30825;DHT22;17550;45.486;12.222;2023-04-24T05:29:48;14.50;99.90
30825;DHT22;17550;45.486;12.222;2023-04-24T05:32:14;14.50;99.90
30825;DHT22;17550;45.486;12.222;2023-04-24T05:34:39;14.50;99.90
30825;DHT22;17550;45.486;12.222;2023-04-24T05:37:05;14.50;99.90
30825;DHT22;17550;45.486;12.222;2023-04-24T05:39:34;14.50;99.90
30825;DHT22;17550;45.486;12.222;2023-04-24T05:42:00;14.60;99.90
30825;DHT22;17550;45.486;12.222;2023-04-24T05:44:28;14.50;99.90
30825;DHT22;17550;45.486;12.222;2023-04-24T05:46:54;14.50;99.90
30825;DHT22;17550;45.486;12.222;2023-04-24T05:49:21;14.50;99.90
30825;DHT22;17550;45.486;12.222;2023-04-24T05:51:47;14.50;99.90
30825;DHT22;17550;45.486;12.222;2023-04-24T05:54:12;14.60;99.90
30825;DHT22;17550;45.486;12.222;2023-04-24T05:56:39;14.60;99.90
30825;DHT22;17550;45.486;12.222;2023-04-24T05:59:05;14.70;99.90
30825;DHT22;17550;45.486;12.222;2023-04-24T06:01:31;14.70;99.90
30825;DHT22;17550;45.486;12.222;2023-04-24T06:03:57;14.80;99.90
30825;DHT22;17550;45.486;12.222;2023-04-24T06:06:23;14.80;99.90
30825;DHT22;17550;45.486;12.222;2023-04-24T06:08:49;14.80;99.90
30825;DHT22;17550;45.486;12.222;2023-04-24T06:11:17;14.90;99.90
30825;DHT22;17550;45.486;12.222;2023-04-24T06:13:43;14.90;99.90
30825;DHT22;17550;45.486;12.222;2023-04-24T06:16:09;14.90;99.90
30825;DHT22;17550;45.486;12.222;2023-04-24T06:18:35;14.90;99.90
30825;DHT22;17550;45.486;12.222;2023-04-24T06:21:01;14.90;99.90
30825;DHT22;17550;45.486;12.222;2023-04-24T06:23:27;14.90;99.90
30825;DHT22;17550;45.486;12.222;2023-04-24T06:25:53;14.90;99.90
30825;DHT22;17550;45.486;12.222;2023-04-24T06:28:18;15.00;99.90
30825;DHT22;17550;45.486;12.222;2023-04-24T06:30:44;15.00;99.90
30825;DHT22;17550;45.486;12.222;2023-04-24T06:33:10;15.10;99.90
30825;DHT22;17550;45.486;12.222;2023-04-24T06:35:36;15.10;99.90
30825;DHT22;17550;45.486;12.222;2023-04-24T06:38:03;15.20;99.90
30825;DHT22;17550;45.486;12.222;2023-04-24T06:40:29;15.20;99.90
30825;DHT22;17550;45.486;12.222;2023-04-24T06:42:55;15.20;99.90
30825;DHT22;17550;45.486;12.222;2023-04-24T06:45:21;15.20;99.90
30825;DHT22;17550;45.486;12.222;2023-04-24T06:47:47;15.20;99.90
30825;DHT22;17550;45.486;12.222;2023-04-24T06:50:13;15.20;99.90
30825;DHT22;17550;45.486;12.222;2023-04-24T06:52:39;15.20;99.90
30825;DHT22;17550;45.486;12.222;2023-04-24T06:55:05;15.20;99.90
30825;DHT22;17550;45.486;12.222;2023-04-24T06:57:31;15.10;99.90
30825;DHT22;17550;45.486;12.222;2023-04-24T06:59:57;15.10;99.90
30825;DHT22;17550;45.486;12.222;2023-04-24T07:02:22;15.10;99.90
30825;DHT22;17550;45.486;12.222;2023-04-24T07:04:48;14.90;99.90
30825;DHT22;17550;45.486;12.222;2023-04-24T07:07:14;14.70;99.90
30825;DHT22;17550;45.486;12.222;2023-04-24T07:09:40;14.50;99.90
30825;DHT22;17550;45.486;12.222;2023-04-24T07:12:11;14.30;99.90
30825;DHT22;17550;45.486;12.222;2023-04-24T07:14:37;14.00;99.90
30825;DHT22;17550;45.486;12.222;2023-04-24T07:17:04;13.90;99.90
30825;DHT22;17550;45.486;12.222;2023-04-24T07:19:30;13.80;99.90
30825;DHT22;17550;45.486;12.222;2023-04-24T07:21:56;13.90;99.90
30825;DHT22;17550;45.486;12.222;2023-04-24T07:24:26;13.80;99.90
30825;DHT22;17550;45.486;12.222;2023-04-24T07:26:54;13.90;99.90
30825;DHT22;17550;45.486;12.222;2023-04-24T07:29:20;13.80;99.90
30825;DHT22;17550;45.486;12.222;2023-04-24T07:31:46;13.80;99.90
30825;DHT22;17550;45.486;12.222;2023-04-24T07:34:12;13.70;99.90
30825;DHT22;17550;45.486;12.222;2023-04-24T07:36:38;13.70;99.90
30825;DHT22;17550;45.486;12.222;2023-04-24T07:41:41;13.70;99.90
30825;DHT22;17550;45.486;12.222;2023-04-24T07:44:07;13.80;99.90
30825;DHT22;17550;45.486;12.222;2023-04-24T07:46:33;14.00;99.90
30825;DHT22;17550;45.486;12.222;2023-04-24T07:48:58;14.20;99.90
30825;DHT22;17550;45.486;12.222;2023-04-24T07:51:26;14.40;99.90
30825;DHT22;17550;45.486;12.222;2023-04-24T07:53:53;14.60;99.90
30825;DHT22;17550;45.486;12.222;2023-04-24T07:56:20;14.70;99.90
30825;DHT22;17550;45.486;12.222;2023-04-24T07:58:46;14.80;99.90
30825;DHT22;17550;45.486;12.222;2023-04-24T08:01:12;14.90;99.90
30825;DHT22;17550;45.486;12.222;2023-04-24T08:03:37;15.00;99.90
30825;DHT22;17550;45.486;12.222;2023-04-24T08:06:03;15.10;99.90
30825;DHT22;17550;45.486;12.222;2023-04-24T08:08:29;15.30;99.90
30825;DHT22;17550;45.486;12.222;2023-04-24T08:10:55;15.30;99.90
30825;DHT22;17550;45.486;12.222;2023-04-24T08:13:22;15.40;99.90
30825;DHT22;17550;45.486;12.222;2023-04-24T08:15:47;15.30;99.90
30825;DHT22;17550;45.486;12.222;2023-04-24T08:18:13;15.30;99.90
30825;DHT22;17550;45.486;12.222;2023-04-24T08:20:41;15.30;99.90
30825;DHT22;17550;45.486;12.222;2023-04-24T08:23:07;15.20;99.90
30825;DHT22;17550;45.486;12.222;2023-04-24T08:25:32;14.90;99.90
30825;DHT22;17550;45.486;12.222;2023-04-24T08:28:01;14.80;99.90
30825;DHT22;17550;45.486;12.222;2023-04-24T08:30:27;14.80;99.90
30825;DHT22;17550;45.486;12.222;2023-04-24T08:32:53;14.90;99.90
30825;DHT22;17550;45.486;12.222;2023-04-24T08:35:19;15.10;99.90
30825;DHT22;17550;45.486;12.222;2023-04-24T08:37:44;15.20;99.90
30825;DHT22;17550;45.486;12.222;2023-04-24T08:40:15;15.40;99.90
30825;DHT22;17550;45.486;12.222;2023-04-24T08:42:44;15.70;99.90
30825;DHT22;17550;45.486;12.222;2023-04-24T08:45:11;15.90;99.90
30825;DHT22;17550;45.486;12.222;2023-04-24T08:47:41;16.30;99.90
30825;DHT22;17550;45.486;12.222;2023-04-24T08:50:08;16.60;99.90
30825;DHT22;17550;45.486;12.222;2023-04-24T08:52:35;16.90;99.90
30825;DHT22;17550;45.486;12.222;2023-04-24T08:55:03;17.10;99.90
30825;DHT22;17550;45.486;12.222;2023-04-24T08:57:29;17.20;99.90
30825;DHT22;17550;45.486;12.222;2023-04-24T08:59:58;17.30;99.90
30825;DHT22;17550;45.486;12.222;2023-04-24T09:02:24;17.20;99.90
30825;DHT22;17550;45.486;12.222;2023-04-24T09:04:50;17.30;99.90
30825;DHT22;17550;45.486;12.222;2023-04-24T09:07:18;17.60;99.90
30825;DHT22;17550;45.486;12.222;2023-04-24T09:09:45;17.70;99.90
30825;DHT22;17550;45.486;12.222;2023-04-24T09:12:11;17.60;99.90
30825;DHT22;17550;45.486;12.222;2023-04-24T09:14:38;17.50;99.90
30825;DHT22;17550;45.486;12.222;2023-04-24T09:17:08;17.20;99.90
30825;DHT22;17550;45.486;12.222;2023-04-24T09:19:33;17.20;99.90
30825;DHT22;17550;45.486;12.222;2023-04-24T09:21:59;17.20;99.90
30825;DHT22;17550;45.486;12.222;2023-04-24T09:24:25;17.30;99.90
30825;DHT22;17550;45.486;12.222;2023-04-24T09:27:00;17.40;99.90
30825;DHT22;17550;45.486;12.222;2023-04-24T09:29:29;17.40;99.90
30825;DHT22;17550;45.486;12.222;2023-04-24T09:31:55;17.50;99.90
30825;DHT22;17550;45.486;12.222;2023-04-24T09:34:26;17.70;99.90
30825;DHT22;17550;45.486;12.222;2023-04-24T09:36:52;17.50;99.90
30825;DHT22;17550;45.486;12.222;2023-04-24T09:39:18;17.40;99.90
30825;DHT22;17550;45.486;12.222;2023-04-24T09:41:54;17.30;99.90
30825;DHT22;17550;45.486;12.222;2023-04-24T09:44:27;17.20;99.90
30825;DHT22;17550;45.486;12.222;2023-04-24T09:46:58;17.40;99.90
30825;DHT22;17550;45.486;12.222;2023-04-24T09:49:26;17.40;99.90
30825;DHT22;17550;45.486;12.222;2023-04-24T09:52:05;17.60;99.90
30825;DHT22;17550;45.486;12.222;2023-04-24T09:54:32;17.80;99.90
30825;DHT22;17550;45.486;12.222;2023-04-24T09:56:58;17.80;99.90
30825;DHT22;17550;45.486;12.222;2023-04-24T09:59:25;17.80;99.90
30825;DHT22;17550;45.486;12.222;2023-04-24T10:01:51;18.00;99.90
30825;DHT22;17550;45.486;12.222;2023-04-24T10:04:25;18.00;99.90
30825;DHT22;17550;45.486;12.222;2023-04-24T10:06:54;17.90;99.90
30825;DHT22;17550;45.486;12.222;2023-04-24T10:09:23;18.00;99.90
30825;DHT22;17550;45.486;12.222;2023-04-24T10:11:50;18.20;99.90
30825;DHT22;17550;45.486;12.222;2023-04-24T10:14:24;18.40;99.90
30825;DHT22;17550;45.486;12.222;2023-04-24T10:16:53;18.60;99.90
30825;DHT22;17550;45.486;12.222;2023-04-24T10:19:20;18.80;99.90
30825;DHT22;17550;45.486;12.222;2023-04-24T10:21:46;19.00;99.90
30825;DHT22;17550;45.486;12.222;2023-04-24T10:24:19;19.10;99.90
30825;DHT22;17550;45.486;12.222;2023-04-24T10:26:47;19.40;99.90
30825;DHT22;17550;45.486;12.222;2023-04-24T10:29:16;19.40;99.50
30825;DHT22;17550;45.486;12.222;2023-04-24T10:31:42;19.50;99.20
30825;DHT22;17550;45.486;12.222;2023-04-24T10:34:10;19.50;98.80
30825;DHT22;17550;45.486;12.222;2023-04-24T10:36:39;19.40;98.30
30825;DHT22;17550;45.486;12.222;2023-04-24T10:39:09;19.30;99.10
30825;DHT22;17550;45.486;12.222;2023-04-24T10:41:37;19.20;98.60
30825;DHT22;17550;45.486;12.222;2023-04-24T10:44:12;19.20;98.60
30825;DHT22;17550;45.486;12.222;2023-04-24T10:46:43;19.10;98.10
30825;DHT22;17550;45.486;12.222;2023-04-24T10:49:09;19.30;97.90
30825;DHT22;17550;45.486;12.222;2023-04-24T10:51:54;19.30;97.80
30825;DHT22;17550;45.486;12.222;2023-04-24T10:54:33;19.20;97.50
30825;DHT22;17550;45.486;12.222;2023-04-24T10:59:44;18.80;98.70
30825;DHT22;17550;45.486;12.222;2023-04-24T11:02:11;18.90;98.40
30825;DHT22;17550;45.486;12.222;2023-04-24T11:04:39;19.10;97.90
30825;DHT22;17550;45.486;12.222;2023-04-24T11:07:05;19.00;97.80
30825;DHT22;17550;45.486;12.222;2023-04-24T11:09:32;19.00;98.80
30825;DHT22;17550;45.486;12.222;2023-04-24T11:12:05;18.90;99.30
30825;DHT22;17550;45.486;12.222;2023-04-24T11:17:37;18.90;98.60
30825;DHT22;17550;45.486;12.222;2023-04-24T11:20:17;18.70;98.80
30825;DHT22;17550;45.486;12.222;2023-04-24T11:22:43;18.50;99.50
30825;DHT22;17550;45.486;12.222;2023-04-24T11:25:09;18.50;99.20
30825;DHT22;17550;45.486;12.222;2023-04-24T11:27:41;18.30;98.80
30825;DHT22;17550;45.486;12.222;2023-04-24T11:30:08;18.30;99.50
30825;DHT22;17550;45.486;12.222;2023-04-24T11:32:37;18.40;99.00
30825;DHT22;17550;45.486;12.222;2023-04-24T11:37:45;18.30;99.40
30825;DHT22;17550;45.486;12.222;2023-04-24T11:40:13;18.30;99.90
30825;DHT22;17550;45.486;12.222;2023-04-24T11:42:44;18.50;99.90
30825;DHT22;17550;45.486;12.222;2023-04-24T11:45:11;18.50;99.20
30825;DHT22;17550;45.486;12.222;2023-04-24T11:47:38;18.50;99.50
30825;DHT22;17550;45.486;12.222;2023-04-24T11:50:07;18.50;99.90
30825;DHT22;17550;45.486;12.222;2023-04-24T11:52:37;18.50;99.00
30825;DHT22;17550;45.486;12.222;2023-04-24T11:55:03;18.60;99.20
30825;DHT22;17550;45.486;12.222;2023-04-24T11:57:30;18.70;99.10
30825;DHT22;17550;45.486;12.222;2023-04-24T12:00:03;18.70;99.40
30825;DHT22;17550;45.486;12.222;2023-04-24T12:02:30;18.90;98.80
30825;DHT22;17550;45.486;12.222;2023-04-24T12:04:56;19.00;98.40
30825;DHT22;17550;45.486;12.222;2023-04-24T12:07:23;19.10;98.40
30825;DHT22;17550;45.486;12.222;2023-04-24T12:12:25;19.20;98.00
30825;DHT22;17550;45.486;12.222;2023-04-24T12:14:57;19.30;98.20
30825;DHT22;17550;45.486;12.222;2023-04-24T12:17:28;19.40;97.90
30825;DHT22;17550;45.486;12.222;2023-04-24T12:20:02;19.40;97.40
30825;DHT22;17550;45.486;12.222;2023-04-24T12:22:42;19.40;97.60
30825;DHT22;17550;45.486;12.222;2023-04-24T12:25:10;19.40;98.10
30825;DHT22;17550;45.486;12.222;2023-04-24T12:27:36;19.30;98.90
30825;DHT22;17550;45.486;12.222;2023-04-24T12:30:04;19.50;99.00
30825;DHT22;17550;45.486;12.222;2023-04-24T12:32:31;19.70;98.30
30825;DHT22;17550;45.486;12.222;2023-04-24T12:34:58;19.90;98.10
30825;DHT22;17550;45.486;12.222;2023-04-24T12:37:32;20.00;97.90
30825;DHT22;17550;45.486;12.222;2023-04-24T12:42:30;20.00;96.80
30825;DHT22;17550;45.486;12.222;2023-04-24T12:45:01;20.10;96.80
30825;DHT22;17550;45.486;12.222;2023-04-24T12:47:28;20.30;96.80
30825;DHT22;17550;45.486;12.222;2023-04-24T12:49:54;20.10;96.50
30825;DHT22;17550;45.486;12.222;2023-04-24T12:52:27;20.30;96.30
30825;DHT22;17550;45.486;12.222;2023-04-24T12:54:54;20.40;96.70
30825;DHT22;17550;45.486;12.222;2023-04-24T12:57:21;20.30;96.60
30825;DHT22;17550;45.486;12.222;2023-04-24T12:59:47;20.10;97.00
30825;DHT22;17550;45.486;12.222;2023-04-24T13:02:14;20.20;97.90
30825;DHT22;17550;45.486;12.222;2023-04-24T13:04:49;20.20;96.50
30825;DHT22;17550;45.486;12.222;2023-04-24T13:07:15;19.90;96.80
30825;DHT22;17550;45.486;12.222;2023-04-24T13:09:42;19.90;97.10
30825;DHT22;17550;45.486;12.222;2023-04-24T13:12:08;20.20;96.80
30825;DHT22;17550;45.486;12.222;2023-04-24T13:14:34;20.50;96.50
30825;DHT22;17550;45.486;12.222;2023-04-24T13:17:00;20.90;96.00
30825;DHT22;17550;45.486;12.222;2023-04-24T13:19:26;21.10;95.30
30825;DHT22;17550;45.486;12.222;2023-04-24T13:21:56;21.30;95.00
30825;DHT22;17550;45.486;12.222;2023-04-24T13:24:25;21.10;95.70
30825;DHT22;17550;45.486;12.222;2023-04-24T13:26:54;20.90;95.00
30825;DHT22;17550;45.486;12.222;2023-04-24T13:29:20;20.70;94.90
30825;DHT22;17550;45.486;12.222;2023-04-24T13:31:50;20.70;95.90
30825;DHT22;17550;45.486;12.222;2023-04-24T13:34:17;20.90;95.40
30825;DHT22;17550;45.486;12.222;2023-04-24T13:36:43;21.00;95.00
30825;DHT22;17550;45.486;12.222;2023-04-24T13:39:08;21.10;94.50
30825;DHT22;17550;45.486;12.222;2023-04-24T13:41:34;21.20;94.10
30825;DHT22;17550;45.486;12.222;2023-04-24T13:44:02;21.30;93.80
30825;DHT22;17550;45.486;12.222;2023-04-24T13:46:28;21.30;94.20
30825;DHT22;17550;45.486;12.222;2023-04-24T13:48:53;21.30;94.60
30825;DHT22;17550;45.486;12.222;2023-04-24T13:51:19;21.50;94.50
30825;DHT22;17550;45.486;12.222;2023-04-24T13:53:45;21.80;94.10
30825;DHT22;17550;45.486;12.222;2023-04-24T13:56:11;22.10;94.00
30825;DHT22;17550;45.486;12.222;2023-04-24T13:58:38;22.30;93.60
30825;DHT22;17550;45.486;12.222;2023-04-24T14:01:04;22.10;93.00
30825;DHT22;17550;45.486;12.222;2023-04-24T14:03:30;21.90;93.20
30825;DHT22;17550;45.486;12.222;2023-04-24T14:05:56;21.80;92.90
30825;DHT22;17550;45.486;12.222;2023-04-24T14:08:22;21.70;93.50
30825;DHT22;17550;45.486;12.222;2023-04-24T14:10:47;21.80;93.20
30825;DHT22;17550;45.486;12.222;2023-04-24T14:13:13;21.80;93.10
30825;DHT22;17550;45.486;12.222;2023-04-24T14:15:39;21.30;93.90
30825;DHT22;17550;45.486;12.222;2023-04-24T14:18:05;21.40;94.10
30825;DHT22;17550;45.486;12.222;2023-04-24T14:20:31;21.50;93.50
30825;DHT22;17550;45.486;12.222;2023-04-24T14:22:57;21.20;93.70
30825;DHT22;17550;45.486;12.222;2023-04-24T14:25:26;21.10;94.10
30825;DHT22;17550;45.486;12.222;2023-04-24T14:27:52;21.30;93.80
30825;DHT22;17550;45.486;12.222;2023-04-24T14:30:18;21.50;93.10
30825;DHT22;17550;45.486;12.222;2023-04-24T14:32:44;21.40;93.10
30825;DHT22;17550;45.486;12.222;2023-04-24T14:35:10;21.20;93.50
30825;DHT22;17550;45.486;12.222;2023-04-24T14:37:36;21.10;93.60
30825;DHT22;17550;45.486;12.222;2023-04-24T14:40:02;20.80;94.00
30825;DHT22;17550;45.486;12.222;2023-04-24T14:42:30;20.40;93.50
30825;DHT22;17550;45.486;12.222;2023-04-24T14:44:55;20.10;93.80
30825;DHT22;17550;45.486;12.222;2023-04-24T14:47:21;20.00;94.40
30825;DHT22;17550;45.486;12.222;2023-04-24T14:49:48;20.10;94.00
30825;DHT22;17550;45.486;12.222;2023-04-24T14:52:14;20.00;94.40
30825;DHT22;17550;45.486;12.222;2023-04-24T14:54:39;19.90;93.80
30825;DHT22;17550;45.486;12.222;2023-04-24T14:57:05;20.10;94.00
30825;DHT22;17550;45.486;12.222;2023-04-24T14:59:31;20.10;93.20
30825;DHT22;17550;45.486;12.222;2023-04-24T15:01:57;20.00;93.60
30825;DHT22;17550;45.486;12.222;2023-04-24T15:04:24;20.10;93.80
30825;DHT22;17550;45.486;12.222;2023-04-24T15:06:53;20.20;93.60
30825;DHT22;17550;45.486;12.222;2023-04-24T15:09:23;20.50;93.50
30825;DHT22;17550;45.486;12.222;2023-04-24T15:11:50;20.60;93.30
30825;DHT22;17550;45.486;12.222;2023-04-24T15:14:16;20.40;92.80
30825;DHT22;17550;45.486;12.222;2023-04-24T15:16:42;20.10;92.90
30825;DHT22;17550;45.486;12.222;2023-04-24T15:19:08;19.90;93.40
30825;DHT22;17550;45.486;12.222;2023-04-24T15:21:35;19.80;93.50
30825;DHT22;17550;45.486;12.222;2023-04-24T15:24:01;19.60;93.40
30825;DHT22;17550;45.486;12.222;2023-04-24T15:26:27;19.70;93.70
30825;DHT22;17550;45.486;12.222;2023-04-24T15:28:53;19.70;93.60